KEND/END METAR and TAF weather

Enter ICAO airport designator
Station Type Date Time Source
KEND METAR 2020/04/03 21:56 UTC NOAA

KEND 032156Z AUTO 02013G19KT 10SM SCT044 06/00 A3014 RMK AO2 SLP217 T00621001 $


Station Type Date Time Source
KEND Decoded METAR 2020/04/03 21:56 UTC NOAA

Vance Air Force Base / Enid, OK, United States (KEND) 36-20N 097-55W
Apr 03, 2020 - 05:56 PM EDT / 2020.04.03 2156 UTC
Wind: from the NNE (020 degrees) at 15 MPH (13 KT) gusting to 22 MPH (19 KT):0
Visibility: 10 mile(s):0
Sky conditions: partly cloudy
Temperature: 43.2 F (6.2 C)
Dew Point: 31.8 F (-0.1 C)
Relative Humidity: 63%
Pressure (altimeter): 30.14 in. Hg (1020 hPa)
ob: KEND 032156Z AUTO 02013G19KT 10SM SCT044 06/00 A3014 RMK AO2 SLP217 T00621001
cycle: 22

Station Type Date Time Source
KEND TAF 2020/04/03 18:21 UTC NOAA

TAF TAF KEND 031800Z 0318/0424 36015G25KT 9999 BKN020 620203 QNH3013INS
BECMG 0320/0321 33014G24KT 9999 BKN030 620302 QNH3012INS
BECMG 0323/0324 01010G18KT 9999 BKN040 620402 QNH3012INS
BECMG 0402/0403 VRB06KT 9999 FEW035 QNH3016INS
BECMG 0411/0412 35006KT 9999 SCT020 QNH3017INS
BECMG 0414/0415 02015KT 9999 FEW100 QNH3006INS TX07/0418Z TNM03/0411Z

Example: see airport list